createdAt,value
2023-08-15T00:00:17.746Z,2.65
2023-08-15T00:02:44.716Z,2.50
2023-08-15T00:05:11.683Z,2.45
2023-08-15T00:07:39.369Z,2.70
2023-08-15T00:10:06.953Z,2.50
2023-08-15T00:12:33.755Z,2.80
2023-08-15T00:15:00.847Z,3.00
2023-08-15T00:17:27.838Z,2.83
2023-08-15T00:19:54.678Z,2.80
2023-08-15T00:22:21.541Z,2.90
2023-08-15T00:24:48.405Z,2.38
2023-08-15T00:27:15.302Z,2.92
2023-08-15T00:29:42.100Z,2.78
2023-08-15T00:32:08.952Z,2.50
2023-08-15T00:34:35.916Z,2.88
2023-08-15T00:37:02.737Z,2.70
2023-08-15T00:39:30.129Z,2.60
2023-08-15T00:41:57.033Z,2.85
2023-08-15T00:44:23.945Z,2.70
2023-08-15T00:46:51.229Z,2.63
2023-08-15T00:49:19.665Z,3.10
2023-08-15T00:51:50.684Z,3.25
2023-08-15T00:54:18.790Z,2.78
2023-08-15T00:56:45.741Z,2.90
2023-08-15T00:59:12.540Z,2.88
2023-08-15T01:01:39.818Z,3.13
2023-08-15T01:04:08.310Z,2.55
2023-08-15T01:06:35.089Z,2.95
2023-08-15T01:09:02.458Z,3.17
2023-08-15T01:11:44.672Z,2.55
2023-08-15T01:14:20.443Z,2.90
2023-08-15T01:16:50.072Z,2.63
2023-08-15T01:19:39.594Z,3.22
2023-08-15T01:22:17.143Z,2.88
2023-08-15T01:24:46.262Z,2.88
2023-08-15T01:27:13.565Z,2.92
2023-08-15T01:29:40.385Z,2.78
2023-08-15T01:32:21.613Z,2.97
2023-08-15T01:35:02.885Z,2.65
2023-08-15T01:37:31.476Z,3.20
2023-08-15T01:40:01.904Z,2.63
2023-08-15T01:42:30.315Z,2.60
2023-08-15T01:44:59.565Z,2.90
2023-08-15T01:47:26.452Z,3.00
2023-08-15T01:49:53.403Z,2.70
2023-08-15T01:52:20.278Z,3.35
2023-08-15T01:54:47.236Z,3.03
2023-08-15T01:57:14.058Z,2.80
2023-08-15T01:59:40.902Z,2.88
2023-08-15T02:02:08.169Z,3.03
2023-08-15T02:04:35.183Z,3.00
2023-08-15T02:07:02.408Z,2.88
2023-08-15T02:09:29.658Z,3.00
2023-08-15T02:11:56.490Z,3.03
2023-08-15T02:14:23.473Z,2.47
2023-08-15T02:16:50.363Z,3.00
2023-08-15T02:19:17.376Z,3.00
2023-08-15T02:21:44.601Z,2.80
2023-08-15T02:24:11.974Z,2.88
2023-08-15T02:26:38.849Z,3.08
2023-08-15T02:29:05.734Z,2.88
2023-08-15T02:31:33.298Z,3.05
2023-08-15T02:34:00.211Z,2.90
2023-08-15T02:36:27.092Z,2.90
2023-08-15T02:38:53.906Z,3.03
2023-08-15T02:41:21.892Z,2.90
2023-08-15T02:43:48.775Z,2.67
2023-08-15T02:46:15.642Z,2.67
2023-08-15T02:48:42.593Z,3.13
2023-08-15T02:51:09.656Z,2.65
2023-08-15T02:53:37.363Z,3.20
2023-08-15T02:56:04.494Z,2.97
2023-08-15T02:58:31.334Z,2.97
2023-08-15T03:00:58.226Z,3.20
2023-08-15T03:03:26.702Z,2.55
2023-08-15T03:05:53.500Z,2.85
2023-08-15T03:08:20.263Z,2.50
2023-08-15T03:10:47.077Z,2.90
2023-08-15T03:13:13.881Z,3.40
2023-08-15T03:15:40.689Z,2.90
2023-08-15T03:18:08.003Z,2.90
2023-08-15T03:20:34.950Z,2.70
2023-08-15T03:23:01.848Z,2.67
2023-08-15T03:25:28.825Z,3.00
2023-08-15T03:27:55.780Z,3.47
2023-08-15T03:30:22.991Z,3.50
2023-08-15T03:32:49.945Z,3.20
2023-08-15T03:35:17.022Z,3.20
2023-08-15T03:37:43.959Z,3.30
2023-08-15T03:40:12.223Z,2.88
2023-08-15T03:42:39.261Z,2.90
2023-08-15T03:45:06.618Z,3.10
2023-08-15T03:47:33.586Z,3.00
2023-08-15T03:50:00.946Z,3.30
2023-08-15T03:52:28.151Z,3.45
2023-08-15T03:54:54.953Z,3.20
2023-08-15T03:57:22.131Z,3.30
2023-08-15T03:59:49.164Z,3.00
2023-08-15T04:02:16.022Z,3.40
2023-08-15T04:04:42.848Z,3.03
2023-08-15T04:07:09.665Z,3.10
2023-08-15T04:09:36.509Z,3.05
2023-08-15T04:12:03.600Z,3.25
2023-08-15T04:14:30.401Z,2.88
2023-08-15T04:16:57.256Z,3.28
2023-08-15T04:19:24.137Z,3.42
2023-08-15T04:21:50.924Z,3.22
2023-08-15T04:24:19.501Z,3.60
2023-08-15T04:26:46.315Z,4.72
2023-08-15T04:29:13.157Z,3.90
2023-08-15T04:31:40.903Z,3.42
2023-08-15T04:34:08.128Z,3.60
2023-08-15T04:36:35.034Z,3.63
2023-08-15T04:39:02.531Z,3.70
2023-08-15T04:41:29.422Z,3.22
2023-08-15T04:43:56.294Z,3.47
2023-08-15T04:46:23.401Z,3.55
2023-08-15T04:48:50.247Z,3.72
2023-08-15T04:51:17.086Z,3.78
2023-08-15T04:53:43.865Z,3.70
2023-08-15T04:56:12.853Z,3.50
2023-08-15T04:58:40.150Z,3.50
2023-08-15T05:01:07.169Z,3.75
2023-08-15T05:03:34.760Z,3.92
2023-08-15T05:06:01.671Z,3.80
2023-08-15T05:08:28.733Z,3.78
2023-08-15T05:10:56.061Z,3.70
2023-08-15T05:13:23.272Z,3.78
2023-08-15T05:15:50.124Z,4.50
2023-08-15T05:18:17.850Z,4.50
2023-08-15T05:20:48.054Z,3.80
2023-08-15T05:23:16.137Z,4.03
2023-08-15T05:25:44.833Z,3.75
2023-08-15T05:28:12.442Z,3.75
2023-08-15T05:30:40.146Z,3.53
2023-08-15T05:33:07.040Z,3.72
2023-08-15T05:35:34.195Z,3.97
2023-08-15T05:38:01.695Z,3.58
2023-08-15T05:40:28.722Z,4.28
2023-08-15T05:42:55.547Z,3.83
2023-08-15T05:45:22.448Z,3.85
2023-08-15T05:47:49.331Z,3.95
2023-08-15T05:50:16.322Z,3.47
2023-08-15T05:52:43.179Z,3.97
2023-08-15T05:55:10.030Z,3.70
2023-08-15T05:57:37.512Z,3.95
2023-08-15T06:00:06.392Z,4.00
2023-08-15T06:02:36.292Z,4.40
2023-08-15T06:05:03.986Z,4.25
2023-08-15T06:07:30.782Z,4.30
2023-08-15T06:09:57.656Z,3.70
2023-08-15T06:12:24.637Z,4.55
2023-08-15T06:14:51.641Z,3.80
2023-08-15T06:17:19.966Z,3.75
2023-08-15T06:19:47.263Z,5.10
2023-08-15T06:22:14.821Z,4.28
2023-08-15T06:24:41.980Z,4.22
2023-08-15T06:27:09.008Z,4.07
2023-08-15T06:29:35.849Z,4.65
2023-08-15T06:32:02.660Z,4.40
2023-08-15T06:34:29.628Z,4.07
2023-08-15T06:36:56.629Z,3.95
2023-08-15T06:39:23.794Z,3.78
2023-08-15T06:41:50.742Z,3.97
2023-08-15T06:44:17.954Z,4.03
2023-08-15T06:46:44.862Z,4.22
2023-08-15T06:49:12.124Z,4.15
2023-08-15T06:51:38.977Z,3.92
2023-08-15T06:54:05.910Z,4.18
2023-08-15T06:56:32.820Z,4.05
2023-08-15T06:59:00.510Z,4.20
2023-08-15T07:01:27.288Z,4.30
2023-08-15T07:03:54.257Z,4.13
2023-08-15T07:06:21.436Z,4.13
2023-08-15T07:08:48.327Z,4.38
2023-08-15T07:11:15.329Z,4.18
2023-08-15T07:13:42.252Z,3.65
2023-08-15T07:16:09.102Z,5.00
2023-08-15T07:18:37.125Z,4.45
2023-08-15T07:21:04.358Z,3.55
2023-08-15T07:23:32.282Z,3.90
2023-08-15T07:25:59.454Z,4.53
2023-08-15T07:28:26.312Z,3.38
2023-08-15T07:30:53.493Z,4.40
2023-08-15T07:33:20.353Z,4.60
2023-08-15T07:35:47.289Z,3.58
2023-08-15T07:38:15.335Z,3.85
2023-08-15T07:40:43.330Z,3.70
2023-08-15T07:43:10.163Z,4.40
2023-08-15T07:45:37.086Z,4.10
2023-08-15T07:48:05.192Z,3.90
2023-08-15T07:50:32.612Z,4.15
2023-08-15T07:52:59.710Z,4.18
2023-08-15T07:55:34.084Z,3.70
2023-08-15T07:58:01.341Z,3.90
2023-08-15T08:00:28.649Z,4.22
2023-08-15T08:02:55.853Z,4.03
2023-08-15T08:05:23.823Z,4.00
2023-08-15T08:07:51.457Z,4.20
2023-08-15T08:10:18.450Z,3.75
2023-08-15T08:12:47.096Z,3.80
2023-08-15T08:15:14.850Z,4.03
2023-08-15T08:17:42.285Z,3.78
2023-08-15T08:20:17.342Z,4.00
2023-08-15T08:22:44.989Z,4.32
2023-08-15T08:25:17.960Z,4.20
2023-08-15T08:27:46.502Z,4.00
2023-08-15T08:30:20.436Z,3.85
2023-08-15T08:32:47.496Z,3.97
2023-08-15T08:35:17.652Z,3.88
2023-08-15T08:37:48.249Z,4.22
2023-08-15T08:40:16.144Z,4.10
2023-08-15T08:42:43.451Z,3.75
2023-08-15T08:45:11.930Z,4.00
2023-08-15T08:47:44.839Z,3.80
2023-08-15T08:50:12.676Z,3.97
2023-08-15T08:52:42.694Z,3.85
2023-08-15T08:55:10.295Z,3.78
2023-08-15T08:57:38.062Z,3.72
2023-08-15T09:00:11.337Z,3.65
2023-08-15T09:02:38.638Z,3.67
2023-08-15T09:05:08.712Z,3.83
2023-08-15T09:07:36.888Z,3.50
2023-08-15T09:10:07.273Z,3.63
2023-08-15T09:12:41.569Z,3.10
2023-08-15T09:15:11.017Z,4.03
2023-08-15T09:17:43.717Z,3.28
2023-08-15T09:20:15.017Z,3.20
2023-08-15T09:22:47.470Z,2.67
2023-08-15T09:25:16.920Z,2.72
2023-08-15T09:27:44.545Z,2.90
2023-08-15T09:30:15.258Z,2.65
2023-08-15T09:32:43.983Z,2.28
2023-08-15T09:35:13.480Z,2.80
2023-08-15T09:37:47.209Z,2.60
2023-08-15T09:40:17.574Z,2.10
2023-08-15T09:42:46.222Z,2.70
2023-08-15T09:45:14.684Z,2.33
2023-08-15T09:47:42.870Z,2.63
2023-08-15T09:50:13.339Z,2.67
2023-08-15T09:52:43.286Z,2.10
2023-08-15T09:55:13.229Z,2.38
2023-08-15T09:57:42.142Z,2.90
2023-08-15T10:00:18.598Z,2.78
2023-08-15T10:03:01.022Z,2.80
2023-08-15T10:05:32.976Z,3.30
2023-08-15T10:08:01.098Z,4.15
2023-08-15T10:10:30.836Z,12.43
2023-08-15T10:12:59.109Z,8.32
2023-08-15T10:15:27.984Z,6.50
2023-08-15T10:17:55.372Z,5.90
2023-08-15T10:20:22.505Z,6.05
2023-08-15T10:22:58.612Z,5.50
2023-08-15T10:25:28.728Z,5.03
2023-08-15T10:27:57.370Z,4.20
2023-08-15T10:30:34.725Z,4.03
2023-08-15T10:33:17.987Z,3.80
2023-08-15T10:35:53.668Z,3.58
2023-08-15T10:38:26.374Z,3.70
2023-08-15T10:41:01.629Z,3.20
2023-08-15T10:43:29.387Z,3.55
2023-08-15T10:46:03.451Z,2.78
2023-08-15T10:51:29.721Z,2.25
2023-08-15T10:54:02.588Z,2.60
2023-08-15T10:56:39.357Z,2.55
2023-08-15T10:59:16.037Z,2.80
2023-08-15T11:01:46.625Z,2.90
2023-08-15T11:04:24.126Z,2.60
2023-08-15T11:06:53.653Z,2.55
2023-08-15T11:09:31.877Z,2.58
2023-08-15T11:12:09.658Z,2.40
2023-08-15T11:14:36.911Z,2.35
2023-08-15T11:17:03.892Z,2.70
2023-08-15T11:19:30.883Z,2.92
2023-08-15T11:21:59.728Z,2.33
2023-08-15T11:24:32.241Z,2.67
2023-08-15T11:26:59.576Z,2.50
2023-08-15T11:29:26.808Z,2.67
2023-08-15T11:31:55.866Z,2.90
2023-08-15T11:34:23.266Z,2.95
2023-08-15T11:36:50.397Z,2.90
2023-08-15T11:39:17.239Z,2.85
2023-08-15T11:41:46.081Z,2.70
2023-08-15T11:44:13.175Z,3.05
2023-08-15T11:46:54.033Z,3.10
2023-08-15T11:49:23.688Z,3.25
2023-08-15T11:51:51.570Z,2.88
2023-08-15T11:54:18.606Z,2.90
2023-08-15T11:56:54.247Z,2.92
2023-08-15T11:59:21.728Z,2.88
2023-08-15T12:01:50.311Z,3.38
2023-08-15T12:04:18.015Z,3.80
2023-08-15T12:06:45.028Z,3.08
2023-08-15T12:09:13.346Z,2.80
2023-08-15T12:11:40.245Z,3.17
2023-08-15T12:14:17.953Z,2.85
2023-08-15T12:16:45.320Z,2.63
2023-08-15T12:19:12.380Z,2.80
2023-08-15T12:21:39.221Z,3.45
2023-08-15T12:24:06.487Z,3.13
2023-08-15T12:26:33.381Z,3.25
2023-08-15T12:29:00.167Z,3.30
2023-08-15T12:31:27.009Z,2.78
2023-08-15T12:33:53.960Z,3.00
2023-08-15T12:36:20.841Z,3.03
2023-08-15T12:38:47.906Z,3.33
2023-08-15T12:41:15.530Z,3.00
2023-08-15T12:43:42.800Z,3.03
2023-08-15T12:46:09.687Z,2.88
2023-08-15T12:48:36.853Z,2.90
2023-08-15T12:51:03.799Z,3.10
2023-08-15T12:53:30.662Z,2.83
2023-08-15T12:55:57.634Z,3.00
2023-08-15T12:58:24.500Z,2.70
2023-08-15T13:00:51.995Z,3.20
2023-08-15T13:03:21.766Z,3.03
2023-08-15T13:05:48.876Z,3.45
2023-08-15T13:08:16.984Z,3.20
2023-08-15T13:10:44.630Z,3.20
2023-08-15T13:13:11.964Z,3.63
2023-08-15T13:15:38.872Z,3.20
2023-08-15T13:18:06.215Z,3.38
2023-08-15T13:20:33.860Z,3.47
2023-08-15T13:23:00.814Z,3.17
2023-08-15T13:25:27.747Z,3.25
2023-08-15T13:27:54.598Z,3.30
2023-08-15T13:30:22.501Z,3.00
2023-08-15T13:32:49.760Z,3.28
2023-08-15T13:35:16.680Z,2.90
2023-08-15T13:37:43.511Z,3.28
2023-08-15T13:40:11.530Z,2.80
2023-08-15T13:42:41.538Z,3.13
2023-08-15T13:45:10.325Z,3.42
2023-08-15T13:47:40.486Z,3.17
2023-08-15T13:50:09.729Z,3.10
2023-08-15T13:52:38.048Z,3.00
2023-08-15T13:55:06.622Z,3.00
2023-08-15T13:57:34.276Z,2.95
2023-08-15T14:00:03.028Z,2.60
2023-08-15T14:02:30.126Z,2.83
2023-08-15T14:04:57.259Z,2.58
2023-08-15T14:07:24.301Z,2.92
2023-08-15T14:09:53.311Z,2.90
2023-08-15T14:12:24.135Z,2.90
2023-08-15T14:14:51.442Z,3.17
2023-08-15T14:17:18.319Z,3.00
2023-08-15T14:19:45.198Z,2.85
2023-08-15T14:22:12.300Z,2.70
2023-08-15T14:24:39.414Z,2.75
2023-08-15T14:27:06.420Z,2.63
2023-08-15T14:29:33.231Z,2.95
2023-08-15T14:32:01.231Z,2.67
2023-08-15T14:34:28.151Z,2.38
2023-08-15T14:36:55.028Z,2.58
2023-08-15T14:39:21.976Z,2.63
2023-08-15T14:41:50.634Z,2.40
2023-08-15T14:44:17.724Z,2.25
2023-08-15T14:46:44.758Z,2.45
2023-08-15T14:49:12.232Z,2.30
2023-08-15T14:51:39.318Z,2.30
2023-08-15T14:54:06.558Z,2.10
2023-08-15T14:56:33.731Z,2.58
2023-08-15T14:59:00.565Z,2.40
2023-08-15T15:01:27.422Z,2.53
2023-08-15T15:03:54.382Z,2.42
2023-08-15T15:06:21.295Z,2.53
2023-08-15T15:08:48.326Z,2.30
2023-08-15T15:11:37.565Z,2.20
2023-08-15T15:14:05.026Z,2.20
2023-08-15T15:16:31.943Z,2.38
2023-08-15T15:18:58.961Z,2.60
2023-08-15T15:21:25.777Z,2.67
2023-08-15T15:23:52.890Z,2.58
2023-08-15T15:26:21.686Z,2.30
2023-08-15T15:28:49.988Z,2.40
2023-08-15T15:31:16.852Z,2.13
2023-08-15T15:33:44.645Z,1.98
2023-08-15T15:36:11.654Z,1.83
2023-08-15T15:38:38.656Z,2.35
2023-08-15T15:41:05.481Z,1.95
2023-08-15T15:43:32.311Z,2.22
2023-08-15T15:45:59.450Z,2.28
2023-08-15T15:48:26.834Z,2.13
2023-08-15T15:50:53.710Z,2.00
2023-08-15T15:53:20.552Z,2.10
2023-08-15T15:55:47.900Z,1.77
2023-08-15T15:58:14.776Z,1.95
2023-08-15T16:00:42.756Z,1.70
2023-08-15T16:03:09.635Z,2.08
2023-08-15T16:05:37.688Z,1.77
2023-08-15T16:08:04.896Z,1.80
2023-08-15T16:10:31.788Z,1.77
2023-08-15T16:12:58.585Z,2.00
2023-08-15T16:15:25.468Z,1.70
2023-08-15T16:17:52.667Z,1.90
2023-08-15T16:20:19.749Z,2.20
2023-08-15T16:22:46.762Z,1.80
2023-08-15T16:25:13.747Z,1.90
2023-08-15T16:27:40.659Z,2.15
2023-08-15T16:30:17.103Z,1.90
2023-08-15T16:32:46.719Z,1.83
2023-08-15T16:35:14.368Z,2.20
2023-08-15T16:37:41.945Z,1.83
2023-08-15T16:40:09.271Z,2.00
2023-08-15T16:42:36.084Z,1.88
2023-08-15T16:45:03.175Z,1.50
2023-08-15T16:47:30.116Z,2.20
2023-08-15T16:49:58.643Z,1.73
2023-08-15T16:52:25.457Z,1.92
2023-08-15T16:54:52.281Z,1.75
2023-08-15T16:57:21.675Z,1.50
2023-08-15T16:59:48.608Z,1.52
2023-08-15T17:02:15.783Z,1.60
2023-08-15T17:04:42.700Z,1.70
2023-08-15T17:07:09.596Z,1.80
2023-08-15T17:09:36.464Z,1.95
2023-08-15T17:12:04.613Z,1.88
2023-08-15T17:14:31.454Z,1.60
2023-08-15T17:16:58.307Z,1.73
2023-08-15T17:19:25.126Z,1.70
2023-08-15T17:21:51.925Z,1.75
2023-08-15T17:24:18.834Z,1.73
2023-08-15T17:26:45.931Z,1.73
2023-08-15T17:29:12.783Z,1.73
2023-08-15T17:31:39.724Z,1.63
2023-08-15T17:34:06.546Z,1.42
2023-08-15T17:36:33.687Z,1.65
2023-08-15T17:39:00.452Z,1.65
2023-08-15T17:41:28.144Z,1.55
2023-08-15T17:43:55.081Z,1.33
2023-08-15T17:46:22.806Z,1.50
2023-08-15T17:48:49.631Z,1.80
2023-08-15T17:51:16.458Z,1.50
2023-08-15T17:53:43.801Z,1.58
2023-08-15T17:56:10.688Z,1.48
2023-08-15T17:58:51.301Z,1.50
2023-08-15T18:01:19.059Z,1.30
2023-08-15T18:03:47.761Z,1.70
2023-08-15T18:06:15.090Z,1.60
2023-08-15T18:08:42.205Z,1.77
2023-08-15T18:11:09.168Z,1.63
2023-08-15T18:13:37.486Z,1.52
2023-08-15T18:16:04.893Z,1.70
2023-08-15T18:18:31.833Z,1.42
2023-08-15T18:20:59.000Z,1.75
2023-08-15T18:23:25.769Z,1.60
2023-08-15T18:25:52.572Z,1.73
2023-08-15T18:28:19.492Z,1.63
2023-08-15T18:30:46.311Z,1.60
2023-08-15T18:33:15.302Z,1.80
2023-08-15T18:35:43.197Z,1.40
2023-08-15T18:38:09.991Z,1.58
2023-08-15T18:40:39.369Z,1.60
2023-08-15T18:43:09.267Z,1.60
2023-08-15T18:45:43.507Z,1.52
2023-08-15T18:48:11.888Z,1.60
2023-08-15T18:50:43.413Z,1.52
2023-08-15T18:53:10.460Z,1.60
2023-08-15T18:55:37.715Z,1.90
2023-08-15T18:58:05.351Z,1.73
2023-08-15T19:00:32.497Z,3.63
2023-08-15T19:02:59.337Z,4.00
2023-08-15T19:05:26.314Z,5.45
2023-08-15T19:07:53.298Z,4.50
2023-08-15T19:10:20.196Z,3.22
2023-08-15T19:12:47.081Z,3.08
2023-08-15T19:15:22.624Z,2.55
2023-08-15T19:17:50.860Z,2.65
2023-08-15T19:20:22.412Z,2.33
2023-08-15T19:22:49.627Z,2.03
2023-08-15T19:25:17.068Z,2.00
2023-08-15T19:27:44.559Z,1.98
2023-08-15T19:30:12.849Z,2.00
2023-08-15T19:32:40.244Z,2.00
2023-08-15T19:35:08.393Z,1.98
2023-08-15T19:37:38.576Z,1.90
2023-08-15T19:40:10.125Z,1.95
2023-08-15T19:42:46.988Z,1.90
2023-08-15T19:45:14.796Z,1.90
2023-08-15T19:47:42.609Z,1.88
2023-08-15T19:50:10.333Z,1.90
2023-08-15T19:52:37.464Z,1.90
2023-08-15T19:55:04.992Z,1.73
2023-08-15T19:57:32.977Z,1.90
2023-08-15T20:00:00.326Z,2.00
2023-08-15T20:02:27.562Z,1.80
2023-08-15T20:04:54.754Z,2.05
2023-08-15T20:07:22.094Z,1.73
2023-08-15T20:09:59.354Z,1.73
2023-08-15T20:12:31.738Z,1.90
2023-08-15T20:14:58.542Z,1.77
2023-08-15T20:17:25.549Z,1.90
2023-08-15T20:19:55.864Z,2.00
2023-08-15T20:22:24.256Z,2.03
2023-08-15T20:24:51.850Z,1.80
2023-08-15T20:27:18.765Z,1.90
2023-08-15T20:29:45.883Z,1.80
2023-08-15T20:32:12.876Z,1.75
2023-08-15T20:34:39.911Z,1.50
2023-08-15T20:37:07.811Z,1.67
2023-08-15T20:39:34.962Z,1.50
2023-08-15T20:42:01.769Z,1.60
2023-08-15T20:44:28.609Z,1.60
2023-08-15T20:46:56.338Z,1.58
2023-08-15T20:49:23.273Z,1.50
2023-08-15T20:51:50.318Z,1.35
2023-08-15T20:54:17.337Z,1.40
2023-08-15T20:56:44.478Z,1.73
2023-08-15T20:59:11.423Z,1.48
2023-08-15T21:01:38.369Z,1.30
2023-08-15T21:04:06.291Z,1.33
2023-08-15T21:06:33.195Z,1.75
2023-08-15T21:08:59.997Z,1.33
2023-08-15T21:11:27.171Z,1.38
2023-08-15T21:13:54.080Z,1.30
2023-08-15T21:16:20.940Z,1.40
2023-08-15T21:18:47.778Z,1.40
2023-08-15T21:21:15.176Z,1.25
2023-08-15T21:23:42.043Z,1.42
2023-08-15T21:26:08.881Z,1.60
2023-08-15T21:28:35.657Z,1.60
2023-08-15T21:31:02.655Z,1.60
2023-08-15T21:33:29.444Z,1.38
2023-08-15T21:35:56.324Z,1.60
2023-08-15T21:38:23.225Z,1.30
2023-08-15T21:40:51.116Z,1.40
2023-08-15T21:43:18.049Z,1.50
2023-08-15T21:45:46.134Z,1.42
2023-08-15T21:48:13.613Z,1.50
2023-08-15T21:50:40.798Z,1.60
2023-08-15T21:53:08.118Z,1.55
2023-08-15T21:55:34.959Z,1.30
2023-08-15T21:58:01.813Z,1.40
2023-08-15T22:00:29.015Z,1.30
2023-08-15T22:02:57.789Z,1.23
2023-08-15T22:05:26.104Z,1.65
2023-08-15T22:07:54.101Z,1.67
2023-08-15T22:10:22.235Z,1.70
2023-08-15T22:12:50.632Z,1.35
2023-08-15T22:15:19.024Z,1.33
2023-08-15T22:17:54.772Z,1.35
2023-08-15T22:20:27.821Z,1.38
2023-08-15T22:22:54.705Z,1.35
2023-08-15T22:25:22.015Z,1.30
2023-08-15T22:27:50.021Z,1.30
2023-08-15T22:30:16.923Z,1.50
2023-08-15T22:32:44.099Z,1.40
2023-08-15T22:35:11.097Z,1.35
2023-08-15T22:37:38.016Z,1.40
2023-08-15T22:40:05.894Z,1.15
2023-08-15T22:42:33.273Z,1.38
2023-08-15T22:45:00.172Z,1.30
2023-08-15T22:47:26.965Z,1.40
2023-08-15T22:49:53.846Z,1.65
2023-08-15T22:52:20.683Z,1.33
2023-08-15T22:54:47.766Z,1.50
2023-08-15T22:57:14.655Z,1.13
2023-08-15T22:59:41.608Z,1.20
2023-08-15T23:02:08.419Z,1.45
2023-08-15T23:04:35.260Z,1.42
2023-08-15T23:07:02.141Z,1.27
2023-08-15T23:09:28.953Z,1.30
2023-08-15T23:11:55.937Z,1.40
2023-08-15T23:14:22.985Z,1.60
2023-08-15T23:16:49.811Z,1.40
2023-08-15T23:19:16.611Z,1.27
2023-08-15T23:21:44.582Z,1.40
2023-08-15T23:24:11.676Z,1.25
2023-08-15T23:26:38.727Z,1.38
2023-08-15T23:29:05.611Z,1.33
2023-08-15T23:31:35.520Z,1.63
2023-08-15T23:34:07.194Z,1.40
2023-08-15T23:36:34.420Z,1.42
2023-08-15T23:39:02.455Z,1.40
2023-08-15T23:41:29.642Z,1.38
2023-08-15T23:43:56.629Z,1.33
2023-08-15T23:46:24.341Z,1.45
2023-08-15T23:48:52.599Z,1.02
2023-08-15T23:51:19.728Z,1.30
2023-08-15T23:53:48.362Z,1.33
2023-08-15T23:56:16.475Z,1.33
2023-08-15T23:58:46.008Z,1.20
